sensor_id;sensor_type;location;lat;lon;timestamp;P1;durP1;ratioP1;P2;durP2;ratioP2
30948;SDS011;17637;51.984;21.208;2022-11-04T00:00:47;27.80;;;15.68;;
30948;SDS011;17637;51.984;21.208;2022-11-04T00:03:14;30.48;;;15.80;;
30948;SDS011;17637;51.984;21.208;2022-11-04T00:05:59;25.13;;;15.38;;
30948;SDS011;17637;51.984;21.208;2022-11-04T00:08:27;26.92;;;14.93;;
30948;SDS011;17637;51.984;21.208;2022-11-04T00:10:54;28.95;;;15.55;;
30948;SDS011;17637;51.984;21.208;2022-11-04T00:13:40;28.08;;;15.55;;
30948;SDS011;17637;51.984;21.208;2022-11-04T00:16:08;26.65;;;15.40;;
30948;SDS011;17637;51.984;21.208;2022-11-04T00:18:54;31.40;;;16.02;;
30948;SDS011;17637;51.984;21.208;2022-11-04T00:21:21;30.33;;;15.93;;
30948;SDS011;17637;51.984;21.208;2022-11-04T00:24:07;29.38;;;15.73;;
30948;SDS011;17637;51.984;21.208;2022-11-04T00:27:02;29.90;;;15.85;;
30948;SDS011;17637;51.984;21.208;2022-11-04T00:29:48;25.58;;;14.77;;
30948;SDS011;17637;51.984;21.208;2022-11-04T00:32:15;28.63;;;14.82;;
30948;SDS011;17637;51.984;21.208;2022-11-04T00:35:00;31.55;;;16.15;;
30948;SDS011;17637;51.984;21.208;2022-11-04T00:37:27;29.05;;;15.57;;
30948;SDS011;17637;51.984;21.208;2022-11-04T00:39:54;34.63;;;16.17;;
30948;SDS011;17637;51.984;21.208;2022-11-04T00:42:21;26.05;;;14.98;;
30948;SDS011;17637;51.984;21.208;2022-11-04T00:44:48;25.80;;;14.10;;
30948;SDS011;17637;51.984;21.208;2022-11-04T00:47:15;29.02;;;14.65;;
30948;SDS011;17637;51.984;21.208;2022-11-04T00:49:42;30.60;;;15.10;;
30948;SDS011;17637;51.984;21.208;2022-11-04T00:52:09;35.20;;;16.45;;
30948;SDS011;17637;51.984;21.208;2022-11-04T00:54:36;24.45;;;14.75;;
30948;SDS011;17637;51.984;21.208;2022-11-04T00:57:03;29.42;;;17.05;;
30948;SDS011;17637;51.984;21.208;2022-11-04T00:59:30;33.58;;;16.05;;
30948;SDS011;17637;51.984;21.208;2022-11-04T01:01:57;30.67;;;14.98;;
30948;SDS011;17637;51.984;21.208;2022-11-04T01:04:24;27.58;;;14.85;;
30948;SDS011;17637;51.984;21.208;2022-11-04T01:06:51;30.02;;;15.73;;
30948;SDS011;17637;51.984;21.208;2022-11-04T01:09:18;24.10;;;15.13;;
30948;SDS011;17637;51.984;21.208;2022-11-04T01:11:45;28.77;;;15.88;;
30948;SDS011;17637;51.984;21.208;2022-11-04T01:14:13;28.77;;;15.45;;
30948;SDS011;17637;51.984;21.208;2022-11-04T01:16:40;31.02;;;15.98;;
30948;SDS011;17637;51.984;21.208;2022-11-04T01:19:08;34.58;;;15.75;;
30948;SDS011;17637;51.984;21.208;2022-11-04T01:21:35;30.98;;;15.20;;
30948;SDS011;17637;51.984;21.208;2022-11-04T01:24:02;28.92;;;16.70;;
30948;SDS011;17637;51.984;21.208;2022-11-04T01:26:29;28.63;;;15.88;;
30948;SDS011;17637;51.984;21.208;2022-11-04T01:28:57;29.77;;;15.73;;
30948;SDS011;17637;51.984;21.208;2022-11-04T01:31:26;27.30;;;15.20;;
30948;SDS011;17637;51.984;21.208;2022-11-04T01:33:55;24.73;;;15.18;;
30948;SDS011;17637;51.984;21.208;2022-11-04T01:36:23;29.33;;;16.15;;
30948;SDS011;17637;51.984;21.208;2022-11-04T01:38:53;27.85;;;16.50;;
30948;SDS011;17637;51.984;21.208;2022-11-04T01:41:23;29.27;;;16.60;;
30948;SDS011;17637;51.984;21.208;2022-11-04T01:43:59;26.33;;;15.35;;
30948;SDS011;17637;51.984;21.208;2022-11-04T01:46:38;27.92;;;15.98;;
30948;SDS011;17637;51.984;21.208;2022-11-04T01:49:20;29.80;;;15.80;;
30948;SDS011;17637;51.984;21.208;2022-11-04T01:52:02;31.63;;;15.38;;
30948;SDS011;17637;51.984;21.208;2022-11-04T01:54:40;33.30;;;15.40;;
30948;SDS011;17637;51.984;21.208;2022-11-04T01:57:09;29.15;;;14.77;;
30948;SDS011;17637;51.984;21.208;2022-11-04T01:59:40;25.73;;;15.52;;
30948;SDS011;17637;51.984;21.208;2022-11-04T02:02:08;30.80;;;16.00;;
30948;SDS011;17637;51.984;21.208;2022-11-04T02:04:35;25.77;;;15.45;;
30948;SDS011;17637;51.984;21.208;2022-11-04T02:07:05;32.22;;;15.82;;
30948;SDS011;17637;51.984;21.208;2022-11-04T02:09:35;30.15;;;14.95;;
30948;SDS011;17637;51.984;21.208;2022-11-04T02:12:03;32.90;;;16.65;;
30948;SDS011;17637;51.984;21.208;2022-11-04T02:14:50;31.23;;;15.95;;
30948;SDS011;17637;51.984;21.208;2022-11-04T02:31:16;32.90;;;17.30;;
30948;SDS011;17637;51.984;21.208;2022-11-04T02:34:00;30.75;;;16.60;;
30948;SDS011;17637;51.984;21.208;2022-11-04T02:36:43;25.45;;;14.82;;
30948;SDS011;17637;51.984;21.208;2022-11-04T02:44:34;27.65;;;15.27;;
30948;SDS011;17637;51.984;21.208;2022-11-04T02:47:07;26.05;;;14.30;;
30948;SDS011;17637;51.984;21.208;2022-11-04T02:49:43;28.13;;;14.30;;
30948;SDS011;17637;51.984;21.208;2022-11-04T02:52:16;25.75;;;14.77;;
30948;SDS011;17637;51.984;21.208;2022-11-04T02:55:01;29.40;;;14.55;;
30948;SDS011;17637;51.984;21.208;2022-11-04T02:57:34;22.77;;;13.82;;
30948;SDS011;17637;51.984;21.208;2022-11-04T03:00:06;22.77;;;13.95;;
30948;SDS011;17637;51.984;21.208;2022-11-04T03:02:40;27.08;;;14.50;;
30948;SDS011;17637;51.984;21.208;2022-11-04T03:05:12;23.95;;;14.02;;
30948;SDS011;17637;51.984;21.208;2022-11-04T03:07:42;21.67;;;13.63;;
30948;SDS011;17637;51.984;21.208;2022-11-04T03:10:18;27.13;;;14.43;;
30948;SDS011;17637;51.984;21.208;2022-11-04T03:12:54;22.95;;;13.25;;
30948;SDS011;17637;51.984;21.208;2022-11-04T03:15:37;21.65;;;13.02;;
30948;SDS011;17637;51.984;21.208;2022-11-04T03:21:01;25.73;;;13.43;;
30948;SDS011;17637;51.984;21.208;2022-11-04T03:23:30;25.05;;;13.50;;
30948;SDS011;17637;51.984;21.208;2022-11-04T03:26:01;25.75;;;12.98;;
30948;SDS011;17637;51.984;21.208;2022-11-04T03:31:43;19.52;;;13.05;;
30948;SDS011;17637;51.984;21.208;2022-11-04T03:34:20;24.10;;;13.63;;
30948;SDS011;17637;51.984;21.208;2022-11-04T03:36:47;22.05;;;13.25;;
30948;SDS011;17637;51.984;21.208;2022-11-04T03:39:14;26.55;;;13.10;;
30948;SDS011;17637;51.984;21.208;2022-11-04T03:41:44;22.67;;;12.95;;
30948;SDS011;17637;51.984;21.208;2022-11-04T03:44:21;21.98;;;12.80;;
30948;SDS011;17637;51.984;21.208;2022-11-04T03:46:52;26.98;;;12.95;;
30948;SDS011;17637;51.984;21.208;2022-11-04T03:49:20;23.67;;;12.85;;
30948;SDS011;17637;51.984;21.208;2022-11-04T03:51:48;20.83;;;13.18;;
30948;SDS011;17637;51.984;21.208;2022-11-04T03:54:16;24.95;;;12.43;;
30948;SDS011;17637;51.984;21.208;2022-11-04T04:02:04;21.10;;;11.75;;
30948;SDS011;17637;51.984;21.208;2022-11-04T04:04:41;19.67;;;12.02;;
30948;SDS011;17637;51.984;21.208;2022-11-04T04:07:24;26.45;;;13.02;;
30948;SDS011;17637;51.984;21.208;2022-11-04T04:10:45;21.77;;;13.00;;
30948;SDS011;17637;51.984;21.208;2022-11-04T04:16:21;29.20;;;13.65;;
30948;SDS011;17637;51.984;21.208;2022-11-04T04:19:00;24.33;;;12.02;;
30948;SDS011;17637;51.984;21.208;2022-11-04T04:21:44;20.67;;;11.38;;
30948;SDS011;17637;51.984;21.208;2022-11-04T04:24:17;21.05;;;11.15;;
30948;SDS011;17637;51.984;21.208;2022-11-04T04:27:05;20.55;;;11.77;;
30948;SDS011;17637;51.984;21.208;2022-11-04T04:29:51;20.42;;;11.52;;
30948;SDS011;17637;51.984;21.208;2022-11-04T04:32:19;20.52;;;11.15;;
30948;SDS011;17637;51.984;21.208;2022-11-04T04:34:49;22.67;;;11.75;;
30948;SDS011;17637;51.984;21.208;2022-11-04T04:37:20;18.27;;;10.25;;
30948;SDS011;17637;51.984;21.208;2022-11-04T04:42:37;16.42;;;10.52;;
30948;SDS011;17637;51.984;21.208;2022-11-04T04:45:46;18.80;;;10.55;;
30948;SDS011;17637;51.984;21.208;2022-11-04T04:48:16;22.92;;;11.27;;
30948;SDS011;17637;51.984;21.208;2022-11-04T04:50:45;18.70;;;10.50;;
30948;SDS011;17637;51.984;21.208;2022-11-04T04:53:14;20.05;;;10.50;;
30948;SDS011;17637;51.984;21.208;2022-11-04T04:55:41;19.65;;;10.75;;
30948;SDS011;17637;51.984;21.208;2022-11-04T04:58:08;21.48;;;11.85;;
30948;SDS011;17637;51.984;21.208;2022-11-04T05:00:35;18.60;;;9.80;;
30948;SDS011;17637;51.984;21.208;2022-11-04T05:03:02;17.05;;;9.77;;
30948;SDS011;17637;51.984;21.208;2022-11-04T05:05:29;18.27;;;10.60;;
30948;SDS011;17637;51.984;21.208;2022-11-04T05:08:06;20.25;;;10.90;;
30948;SDS011;17637;51.984;21.208;2022-11-04T05:10:34;18.75;;;10.65;;
30948;SDS011;17637;51.984;21.208;2022-11-04T05:13:01;18.13;;;10.90;;
30948;SDS011;17637;51.984;21.208;2022-11-04T05:15:46;21.05;;;10.35;;
30948;SDS011;17637;51.984;21.208;2022-11-04T05:18:13;21.67;;;10.95;;
30948;SDS011;17637;51.984;21.208;2022-11-04T05:20:40;23.88;;;11.70;;
30948;SDS011;17637;51.984;21.208;2022-11-04T05:23:07;20.63;;;10.63;;
30948;SDS011;17637;51.984;21.208;2022-11-04T05:25:38;15.32;;;10.07;;
30948;SDS011;17637;51.984;21.208;2022-11-04T05:28:05;17.85;;;10.15;;
30948;SDS011;17637;51.984;21.208;2022-11-04T05:30:34;19.92;;;10.95;;
30948;SDS011;17637;51.984;21.208;2022-11-04T05:33:02;18.27;;;9.95;;
30948;SDS011;17637;51.984;21.208;2022-11-04T05:35:31;19.05;;;10.35;;
30948;SDS011;17637;51.984;21.208;2022-11-04T05:37:58;17.17;;;9.93;;
30948;SDS011;17637;51.984;21.208;2022-11-04T05:40:25;18.08;;;10.07;;
30948;SDS011;17637;51.984;21.208;2022-11-04T05:42:52;20.90;;;10.65;;
30948;SDS011;17637;51.984;21.208;2022-11-04T05:45:22;18.38;;;10.52;;
30948;SDS011;17637;51.984;21.208;2022-11-04T05:47:55;20.45;;;10.57;;
30948;SDS011;17637;51.984;21.208;2022-11-04T05:50:24;18.95;;;10.23;;
30948;SDS011;17637;51.984;21.208;2022-11-04T05:52:51;18.65;;;10.40;;
30948;SDS011;17637;51.984;21.208;2022-11-04T05:55:18;17.08;;;10.05;;
30948;SDS011;17637;51.984;21.208;2022-11-04T05:57:46;16.42;;;9.55;;
30948;SDS011;17637;51.984;21.208;2022-11-04T06:00:13;22.50;;;10.20;;
30948;SDS011;17637;51.984;21.208;2022-11-04T06:02:40;19.35;;;9.70;;
30948;SDS011;17637;51.984;21.208;2022-11-04T06:05:08;17.88;;;10.70;;
30948;SDS011;17637;51.984;21.208;2022-11-04T06:07:35;20.33;;;9.82;;
30948;SDS011;17637;51.984;21.208;2022-11-04T06:10:02;15.80;;;9.48;;
30948;SDS011;17637;51.984;21.208;2022-11-04T06:12:30;17.55;;;9.90;;
30948;SDS011;17637;51.984;21.208;2022-11-04T06:14:57;19.90;;;9.65;;
30948;SDS011;17637;51.984;21.208;2022-11-04T06:17:24;17.50;;;9.63;;
30948;SDS011;17637;51.984;21.208;2022-11-04T06:19:51;19.50;;;9.95;;
30948;SDS011;17637;51.984;21.208;2022-11-04T06:22:18;16.15;;;9.73;;
30948;SDS011;17637;51.984;21.208;2022-11-04T06:24:45;17.90;;;9.90;;
30948;SDS011;17637;51.984;21.208;2022-11-04T06:27:12;18.33;;;10.05;;
30948;SDS011;17637;51.984;21.208;2022-11-04T06:29:39;18.00;;;9.38;;
30948;SDS011;17637;51.984;21.208;2022-11-04T06:32:11;17.38;;;9.18;;
30948;SDS011;17637;51.984;21.208;2022-11-04T06:34:40;14.30;;;8.82;;
30948;SDS011;17637;51.984;21.208;2022-11-04T06:37:07;17.85;;;9.32;;
30948;SDS011;17637;51.984;21.208;2022-11-04T06:39:35;17.70;;;9.95;;
30948;SDS011;17637;51.984;21.208;2022-11-04T06:42:03;21.35;;;11.15;;
30948;SDS011;17637;51.984;21.208;2022-11-04T06:44:31;19.95;;;10.55;;
30948;SDS011;17637;51.984;21.208;2022-11-04T06:46:59;24.83;;;11.70;;
30948;SDS011;17637;51.984;21.208;2022-11-04T06:49:27;19.25;;;11.40;;
30948;SDS011;17637;51.984;21.208;2022-11-04T06:51:54;17.75;;;11.43;;
30948;SDS011;17637;51.984;21.208;2022-11-04T06:54:21;21.10;;;11.32;;
30948;SDS011;17637;51.984;21.208;2022-11-04T06:56:48;16.08;;;10.48;;
30948;SDS011;17637;51.984;21.208;2022-11-04T06:59:16;20.20;;;10.05;;
30948;SDS011;17637;51.984;21.208;2022-11-04T07:01:45;20.87;;;11.00;;
30948;SDS011;17637;51.984;21.208;2022-11-04T07:04:13;16.23;;;9.52;;
30948;SDS011;17637;51.984;21.208;2022-11-04T07:06:40;16.70;;;9.40;;
30948;SDS011;17637;51.984;21.208;2022-11-04T07:09:11;17.10;;;9.43;;
30948;SDS011;17637;51.984;21.208;2022-11-04T07:11:40;15.80;;;9.48;;
30948;SDS011;17637;51.984;21.208;2022-11-04T07:14:08;18.15;;;8.70;;
30948;SDS011;17637;51.984;21.208;2022-11-04T07:16:36;14.15;;;8.90;;
30948;SDS011;17637;51.984;21.208;2022-11-04T07:19:04;16.75;;;8.70;;
30948;SDS011;17637;51.984;21.208;2022-11-04T07:21:31;17.63;;;9.00;;
30948;SDS011;17637;51.984;21.208;2022-11-04T07:23:59;14.82;;;8.90;;
30948;SDS011;17637;51.984;21.208;2022-11-04T07:26:26;15.85;;;9.02;;
30948;SDS011;17637;51.984;21.208;2022-11-04T07:28:53;19.20;;;9.45;;
30948;SDS011;17637;51.984;21.208;2022-11-04T07:31:20;14.88;;;10.07;;
30948;SDS011;17637;51.984;21.208;2022-11-04T07:33:47;15.23;;;9.70;;
30948;SDS011;17637;51.984;21.208;2022-11-04T07:36:17;17.35;;;9.75;;
30948;SDS011;17637;51.984;21.208;2022-11-04T07:38:45;17.17;;;9.70;;
30948;SDS011;17637;51.984;21.208;2022-11-04T07:41:12;18.65;;;10.77;;
30948;SDS011;17637;51.984;21.208;2022-11-04T07:43:40;16.40;;;9.82;;
30948;SDS011;17637;51.984;21.208;2022-11-04T07:46:10;17.23;;;9.50;;
30948;SDS011;17637;51.984;21.208;2022-11-04T07:48:38;17.55;;;10.13;;
30948;SDS011;17637;51.984;21.208;2022-11-04T07:51:06;20.65;;;10.95;;
30948;SDS011;17637;51.984;21.208;2022-11-04T07:53:36;18.40;;;10.15;;
30948;SDS011;17637;51.984;21.208;2022-11-04T07:56:04;21.15;;;10.25;;
30948;SDS011;17637;51.984;21.208;2022-11-04T07:58:32;17.95;;;11.07;;
30948;SDS011;17637;51.984;21.208;2022-11-04T08:01:01;19.13;;;11.07;;
30948;SDS011;17637;51.984;21.208;2022-11-04T08:03:31;17.05;;;10.70;;
30948;SDS011;17637;51.984;21.208;2022-11-04T08:06:00;20.63;;;10.65;;
30948;SDS011;17637;51.984;21.208;2022-11-04T08:08:29;21.35;;;10.80;;
30948;SDS011;17637;51.984;21.208;2022-11-04T08:10:57;19.92;;;10.70;;
30948;SDS011;17637;51.984;21.208;2022-11-04T08:13:30;16.38;;;10.10;;
30948;SDS011;17637;51.984;21.208;2022-11-04T08:16:05;21.17;;;10.63;;
30948;SDS011;17637;51.984;21.208;2022-11-04T08:18:35;19.92;;;10.40;;
30948;SDS011;17637;51.984;21.208;2022-11-04T08:21:02;17.90;;;10.55;;
30948;SDS011;17637;51.984;21.208;2022-11-04T08:23:30;20.38;;;9.98;;
30948;SDS011;17637;51.984;21.208;2022-11-04T08:25:58;16.38;;;9.90;;
30948;SDS011;17637;51.984;21.208;2022-11-04T08:28:25;22.52;;;9.60;;
30948;SDS011;17637;51.984;21.208;2022-11-04T08:31:05;18.83;;;10.75;;
30948;SDS011;17637;51.984;21.208;2022-11-04T08:33:39;15.40;;;10.10;;
30948;SDS011;17637;51.984;21.208;2022-11-04T08:36:08;17.13;;;10.60;;
30948;SDS011;17637;51.984;21.208;2022-11-04T08:38:41;16.05;;;9.80;;
30948;SDS011;17637;51.984;21.208;2022-11-04T08:41:08;16.58;;;9.70;;
30948;SDS011;17637;51.984;21.208;2022-11-04T08:43:36;16.98;;;10.15;;
30948;SDS011;17637;51.984;21.208;2022-11-04T08:46:05;18.45;;;9.77;;
30948;SDS011;17637;51.984;21.208;2022-11-04T08:48:34;18.30;;;9.43;;
30948;SDS011;17637;51.984;21.208;2022-11-04T08:51:02;20.38;;;10.40;;
30948;SDS011;17637;51.984;21.208;2022-11-04T08:53:31;17.63;;;9.95;;
30948;SDS011;17637;51.984;21.208;2022-11-04T08:55:58;18.45;;;9.60;;
30948;SDS011;17637;51.984;21.208;2022-11-04T08:58:25;18.88;;;9.43;;
30948;SDS011;17637;51.984;21.208;2022-11-04T09:00:52;18.00;;;9.75;;
30948;SDS011;17637;51.984;21.208;2022-11-04T09:03:19;18.20;;;9.68;;
30948;SDS011;17637;51.984;21.208;2022-11-04T09:05:46;17.88;;;9.50;;
30948;SDS011;17637;51.984;21.208;2022-11-04T09:08:15;17.38;;;9.55;;
30948;SDS011;17637;51.984;21.208;2022-11-04T09:10:43;16.02;;;10.27;;
30948;SDS011;17637;51.984;21.208;2022-11-04T09:13:12;16.80;;;9.15;;
30948;SDS011;17637;51.984;21.208;2022-11-04T09:15:41;16.52;;;9.65;;
30948;SDS011;17637;51.984;21.208;2022-11-04T09:18:09;17.15;;;9.43;;
30948;SDS011;17637;51.984;21.208;2022-11-04T09:20:36;17.17;;;10.45;;
30948;SDS011;17637;51.984;21.208;2022-11-04T09:23:07;15.10;;;9.45;;
30948;SDS011;17637;51.984;21.208;2022-11-04T09:25:35;16.55;;;9.65;;
30948;SDS011;17637;51.984;21.208;2022-11-04T09:28:02;18.33;;;10.07;;
30948;SDS011;17637;51.984;21.208;2022-11-04T09:30:30;19.63;;;9.77;;
30948;SDS011;17637;51.984;21.208;2022-11-04T09:32:57;17.15;;;9.80;;
30948;SDS011;17637;51.984;21.208;2022-11-04T09:35:24;16.23;;;9.38;;
30948;SDS011;17637;51.984;21.208;2022-11-04T09:37:53;18.25;;;9.93;;
30948;SDS011;17637;51.984;21.208;2022-11-04T09:40:21;16.38;;;8.60;;
30948;SDS011;17637;51.984;21.208;2022-11-04T09:45:48;16.42;;;8.80;;
30948;SDS011;17637;51.984;21.208;2022-11-04T09:48:30;25.05;;;9.05;;
30948;SDS011;17637;51.984;21.208;2022-11-04T09:51:04;16.38;;;9.30;;
30948;SDS011;17637;51.984;21.208;2022-11-04T09:56:21;18.50;;;8.98;;
30948;SDS011;17637;51.984;21.208;2022-11-04T09:58:51;17.05;;;8.95;;
30948;SDS011;17637;51.984;21.208;2022-11-04T10:03:47;15.63;;;8.63;;
30948;SDS011;17637;51.984;21.208;2022-11-04T10:06:41;18.38;;;9.00;;
30948;SDS011;17637;51.984;21.208;2022-11-04T10:25:49;16.48;;;9.50;;
30948;SDS011;17637;51.984;21.208;2022-11-04T10:28:19;15.07;;;9.50;;
30948;SDS011;17637;51.984;21.208;2022-11-04T10:30:51;19.48;;;9.35;;
30948;SDS011;17637;51.984;21.208;2022-11-04T10:33:27;12.45;;;8.77;;
30948;SDS011;17637;51.984;21.208;2022-11-04T10:36:00;15.45;;;9.05;;
30948;SDS011;17637;51.984;21.208;2022-11-04T10:38:38;15.57;;;8.75;;
30948;SDS011;17637;51.984;21.208;2022-11-04T10:43:45;17.25;;;8.95;;
30948;SDS011;17637;51.984;21.208;2022-11-04T10:51:34;16.25;;;8.98;;
30948;SDS011;17637;51.984;21.208;2022-11-04T10:54:00;15.45;;;7.97;;
30948;SDS011;17637;51.984;21.208;2022-11-04T11:02:08;16.63;;;8.93;;
30948;SDS011;17637;51.984;21.208;2022-11-04T11:04:36;13.65;;;8.05;;
30948;SDS011;17637;51.984;21.208;2022-11-04T11:07:05;18.80;;;9.18;;
30948;SDS011;17637;51.984;21.208;2022-11-04T11:15:47;14.02;;;8.50;;
30948;SDS011;17637;51.984;21.208;2022-11-04T11:18:14;13.52;;;8.90;;
30948;SDS011;17637;51.984;21.208;2022-11-04T11:20:49;17.45;;;8.52;;
30948;SDS011;17637;51.984;21.208;2022-11-04T11:26:09;15.30;;;8.70;;
30948;SDS011;17637;51.984;21.208;2022-11-04T11:28:39;13.90;;;8.80;;
30948;SDS011;17637;51.984;21.208;2022-11-04T11:31:13;14.02;;;8.93;;
30948;SDS011;17637;51.984;21.208;2022-11-04T11:33:55;18.42;;;9.07;;
30948;SDS011;17637;51.984;21.208;2022-11-04T11:36:25;21.30;;;8.90;;
30948;SDS011;17637;51.984;21.208;2022-11-04T11:39:03;13.30;;;8.00;;
30948;SDS011;17637;51.984;21.208;2022-11-04T11:41:35;14.23;;;8.73;;
30948;SDS011;17637;51.984;21.208;2022-11-04T11:47:06;13.95;;;8.75;;
30948;SDS011;17637;51.984;21.208;2022-11-04T11:49:44;16.60;;;8.90;;
30948;SDS011;17637;51.984;21.208;2022-11-04T11:55:14;17.10;;;9.07;;
30948;SDS011;17637;51.984;21.208;2022-11-04T12:03:57;12.77;;;8.32;;
30948;SDS011;17637;51.984;21.208;2022-11-04T12:09:51;12.88;;;7.93;;
30948;SDS011;17637;51.984;21.208;2022-11-04T12:15:25;13.20;;;7.93;;
30948;SDS011;17637;51.984;21.208;2022-11-04T12:21:03;17.67;;;7.95;;
30948;SDS011;17637;51.984;21.208;2022-11-04T12:26:33;12.80;;;7.70;;
30948;SDS011;17637;51.984;21.208;2022-11-04T12:48:11;15.38;;;7.80;;
30948;SDS011;17637;51.984;21.208;2022-11-04T12:56:13;11.77;;;7.65;;
30948;SDS011;17637;51.984;21.208;2022-11-04T13:01:38;11.73;;;7.45;;
30948;SDS011;17637;51.984;21.208;2022-11-04T13:04:11;15.60;;;8.07;;
30948;SDS011;17637;51.984;21.208;2022-11-04T13:06:53;16.00;;;8.32;;
30948;SDS011;17637;51.984;21.208;2022-11-04T13:09:30;14.70;;;8.43;;
30948;SDS011;17637;51.984;21.208;2022-11-04T13:12:03;14.93;;;8.45;;
30948;SDS011;17637;51.984;21.208;2022-11-04T13:14:42;13.25;;;7.93;;
30948;SDS011;17637;51.984;21.208;2022-11-04T13:17:18;12.73;;;7.90;;
30948;SDS011;17637;51.984;21.208;2022-11-04T13:19:50;14.57;;;8.48;;
30948;SDS011;17637;51.984;21.208;2022-11-04T13:22:21;14.10;;;8.52;;
30948;SDS011;17637;51.984;21.208;2022-11-04T13:24:53;18.63;;;8.95;;
30948;SDS011;17637;51.984;21.208;2022-11-04T13:27:26;13.68;;;8.77;;
30948;SDS011;17637;51.984;21.208;2022-11-04T13:36:23;13.85;;;9.60;;
30948;SDS011;17637;51.984;21.208;2022-11-04T13:39:07;14.70;;;8.55;;
30948;SDS011;17637;51.984;21.208;2022-11-04T13:44:30;22.75;;;10.70;;
30948;SDS011;17637;51.984;21.208;2022-11-04T13:47:11;20.15;;;12.48;;
30948;SDS011;17637;51.984;21.208;2022-11-04T13:49:48;18.25;;;11.30;;
30948;SDS011;17637;51.984;21.208;2022-11-04T13:52:17;18.75;;;10.07;;
30948;SDS011;17637;51.984;21.208;2022-11-04T13:54:45;14.95;;;10.07;;
30948;SDS011;17637;51.984;21.208;2022-11-04T13:57:31;17.52;;;10.15;;
30948;SDS011;17637;51.984;21.208;2022-11-04T14:00:23;20.38;;;11.35;;
30948;SDS011;17637;51.984;21.208;2022-11-04T14:08:10;18.77;;;10.23;;
30948;SDS011;17637;51.984;21.208;2022-11-04T14:16:00;16.90;;;9.20;;
30948;SDS011;17637;51.984;21.208;2022-11-04T14:18:32;19.00;;;11.35;;
30948;SDS011;17637;51.984;21.208;2022-11-04T14:23:39;18.52;;;9.95;;
30948;SDS011;17637;51.984;21.208;2022-11-04T14:26:09;17.80;;;10.20;;
30948;SDS011;17637;51.984;21.208;2022-11-04T14:28:38;17.92;;;9.23;;
30948;SDS011;17637;51.984;21.208;2022-11-04T14:31:09;21.45;;;11.30;;
30948;SDS011;17637;51.984;21.208;2022-11-04T14:44:20;24.70;;;16.38;;
30948;SDS011;17637;51.984;21.208;2022-11-04T14:52:27;29.40;;;18.40;;
30948;SDS011;17637;51.984;21.208;2022-11-04T14:55:03;35.08;;;22.88;;
30948;SDS011;17637;51.984;21.208;2022-11-04T14:57:37;27.25;;;18.65;;
30948;SDS011;17637;51.984;21.208;2022-11-04T15:05:45;20.27;;;11.98;;
30948;SDS011;17637;51.984;21.208;2022-11-04T15:11:16;27.58;;;17.45;;
30948;SDS011;17637;51.984;21.208;2022-11-04T15:14:15;33.08;;;21.55;;
30948;SDS011;17637;51.984;21.208;2022-11-04T15:16:46;33.53;;;19.40;;
30948;SDS011;17637;51.984;21.208;2022-11-04T15:19:28;31.25;;;20.30;;
30948;SDS011;17637;51.984;21.208;2022-11-04T15:21:57;29.67;;;17.45;;
30948;SDS011;17637;51.984;21.208;2022-11-04T15:24:27;28.40;;;15.57;;
30948;SDS011;17637;51.984;21.208;2022-11-04T15:26:56;27.10;;;15.20;;
30948;SDS011;17637;51.984;21.208;2022-11-04T15:29:28;29.08;;;17.23;;
30948;SDS011;17637;51.984;21.208;2022-11-04T15:31:56;24.42;;;15.05;;
30948;SDS011;17637;51.984;21.208;2022-11-04T15:34:30;23.77;;;14.60;;
30948;SDS011;17637;51.984;21.208;2022-11-04T15:37:02;21.83;;;14.10;;
30948;SDS011;17637;51.984;21.208;2022-11-04T15:39:39;20.60;;;13.60;;
30948;SDS011;17637;51.984;21.208;2022-11-04T15:42:13;22.73;;;13.65;;
30948;SDS011;17637;51.984;21.208;2022-11-04T15:47:48;22.85;;;14.00;;
30948;SDS011;17637;51.984;21.208;2022-11-04T15:50:35;27.23;;;14.32;;
30948;SDS011;17637;51.984;21.208;2022-11-04T15:53:03;29.08;;;16.85;;
30948;SDS011;17637;51.984;21.208;2022-11-04T15:55:36;34.45;;;21.05;;
30948;SDS011;17637;51.984;21.208;2022-11-04T15:58:04;27.35;;;17.23;;
30948;SDS011;17637;51.984;21.208;2022-11-04T16:00:31;30.88;;;19.50;;
30948;SDS011;17637;51.984;21.208;2022-11-04T16:02:59;34.90;;;23.23;;
30948;SDS011;17637;51.984;21.208;2022-11-04T16:05:33;45.45;;;29.02;;
30948;SDS011;17637;51.984;21.208;2022-11-04T16:08:19;153.57;;;117.25;;
30948;SDS011;17637;51.984;21.208;2022-11-04T16:10:49;63.15;;;48.47;;
30948;SDS011;17637;51.984;21.208;2022-11-04T16:13:32;52.42;;;28.77;;
30948;SDS011;17637;51.984;21.208;2022-11-04T16:18:47;49.13;;;34.63;;
30948;SDS011;17637;51.984;21.208;2022-11-04T16:23:57;36.97;;;22.40;;
30948;SDS011;17637;51.984;21.208;2022-11-04T16:26:34;32.00;;;21.63;;
30948;SDS011;17637;51.984;21.208;2022-11-04T16:29:06;32.20;;;18.70;;
30948;SDS011;17637;51.984;21.208;2022-11-04T16:34:04;33.33;;;17.75;;
30948;SDS011;17637;51.984;21.208;2022-11-04T16:36:37;36.15;;;21.50;;
30948;SDS011;17637;51.984;21.208;2022-11-04T16:39:04;41.50;;;29.08;;
30948;SDS011;17637;51.984;21.208;2022-11-04T16:41:36;44.25;;;22.83;;
30948;SDS011;17637;51.984;21.208;2022-11-04T16:44:05;49.28;;;37.15;;
30948;SDS011;17637;51.984;21.208;2022-11-04T16:46:44;26.75;;;16.08;;
30948;SDS011;17637;51.984;21.208;2022-11-04T16:49:15;21.73;;;14.75;;
30948;SDS011;17637;51.984;21.208;2022-11-04T16:51:44;24.45;;;15.82;;
30948;SDS011;17637;51.984;21.208;2022-11-04T16:54:13;21.35;;;12.98;;
30948;SDS011;17637;51.984;21.208;2022-11-04T16:56:40;23.23;;;14.18;;
30948;SDS011;17637;51.984;21.208;2022-11-04T16:59:08;22.65;;;12.90;;
30948;SDS011;17637;51.984;21.208;2022-11-04T17:01:37;24.40;;;14.32;;
30948;SDS011;17637;51.984;21.208;2022-11-04T17:04:06;25.45;;;15.05;;
30948;SDS011;17637;51.984;21.208;2022-11-04T17:06:33;21.30;;;13.32;;
30948;SDS011;17637;51.984;21.208;2022-11-04T17:09:01;35.17;;;28.75;;
30948;SDS011;17637;51.984;21.208;2022-11-04T17:11:28;33.13;;;20.33;;
30948;SDS011;17637;51.984;21.208;2022-11-04T17:13:55;26.90;;;19.67;;
30948;SDS011;17637;51.984;21.208;2022-11-04T17:16:22;27.45;;;19.83;;
30948;SDS011;17637;51.984;21.208;2022-11-04T17:18:49;31.08;;;24.15;;
30948;SDS011;17637;51.984;21.208;2022-11-04T17:21:16;23.75;;;16.23;;
30948;SDS011;17637;51.984;21.208;2022-11-04T17:23:46;31.23;;;19.90;;
30948;SDS011;17637;51.984;21.208;2022-11-04T17:26:13;28.00;;;19.83;;
30948;SDS011;17637;51.984;21.208;2022-11-04T17:28:40;27.85;;;16.50;;
30948;SDS011;17637;51.984;21.208;2022-11-04T17:31:08;25.42;;;15.55;;
30948;SDS011;17637;51.984;21.208;2022-11-04T17:33:44;32.78;;;20.35;;
30948;SDS011;17637;51.984;21.208;2022-11-04T17:36:14;26.75;;;16.95;;
30948;SDS011;17637;51.984;21.208;2022-11-04T17:38:44;23.88;;;15.13;;
30948;SDS011;17637;51.984;21.208;2022-11-04T17:41:12;22.48;;;15.02;;
30948;SDS011;17637;51.984;21.208;2022-11-04T17:43:57;29.02;;;16.08;;
30948;SDS011;17637;51.984;21.208;2022-11-04T17:46:28;25.75;;;15.63;;
30948;SDS011;17637;51.984;21.208;2022-11-04T17:49:10;28.35;;;17.65;;
30948;SDS011;17637;51.984;21.208;2022-11-04T17:51:41;25.08;;;15.80;;